Terminal Aerodrome Forecast
Issued by NWS

Home | Current Version | Previous Version | Text Only | Print | Product List | Glossary On
Versions: 1 2 3 4 5 6 7 8 9 10 11 12 13
000
FTUS45 KBOI 312059 AAA
TAFBKE
TAF AMD
KBKE 312059Z 3121/0118 16012KT P6SM BKN100 BKN150
     FM010100 29008KT P6SM SCT070 OVC100
     FM011600 31015KT P6SM VCSH BKN040 OVC060=

USA.gov is the U.S. government's official web portal to all federal, state and local government web resources and services.